Time;durP1;ratioP1;P1;durP2;ratioP2;P2;SDS_P1;SDS_P2;PMS_P1;PMS_P2;Temp;Humidity;BMP_temperature;BMP_pressure;BME280_temperature;BME280_humidity;BME280_pressure;Samples;Min_cycle;Max_cycle;Signal;HPM_P1;HPM_P2
2021/06/06 00:00:33;;;;;;;63.17;31.35;;;15.90;87.20;;;;;;4996270;28;20397;-76
2021/06/06 00:02:59;;;;;;;71.50;35.80;;;15.90;88.60;;;;;;5012728;28;20450;-75
2021/06/06 00:05:41;;;;;;;69.83;35.73;;;15.90;88.70;;;;;;5012965;28;20408;-75
2021/06/06 00:08:07;;;;;;;63.65;34.95;;;15.90;87.90;;;;;;5012571;28;21486;-76
2021/06/06 00:10:32;;;;;;;66.32;35.58;;;15.90;88.50;;;;;;5012544;28;20455;-76
2021/06/06 00:12:58;;;;;;;62.63;34.50;;;15.90;88.30;;;;;;4994686;28;20421;-78
2021/06/06 00:15:23;;;;;;;52.10;29.30;;;16.00;87.40;;;;;;5001495;28;20472;-76
2021/06/06 00:17:49;;;;;;;59.90;29.60;;;15.90;87.00;;;;;;5019275;28;20399;-77
2021/06/06 00:20:15;;;;;;;55.70;31.15;;;15.80;87.40;;;;;;4999733;28;20426;-77
2021/06/06 00:22:41;;;;;;;52.05;28.55;;;15.80;87.80;;;;;;4998296;28;20418;-76
2021/06/06 00:25:09;;;;;;;62.20;30.92;;;15.80;88.10;;;;;;5012952;28;20404;-76
2021/06/06 00:27:34;;;;;;;51.17;28.40;;;15.80;88.50;;;;;;5020148;28;20399;-76
2021/06/06 00:30:00;;;;;;;49.28;27.38;;;15.80;87.80;;;;;;4999477;28;20473;-76
2021/06/06 00:32:26;;;;;;;52.50;27.60;;;15.70;88.00;;;;;;5008625;28;20404;-76
2021/06/06 00:34:52;;;;;;;49.30;28.47;;;15.80;90.20;;;;;;5010270;28;20474;-76
2021/06/06 00:37:18;;;;;;;47.67;25.40;;;15.90;87.30;;;;;;5004337;28;20880;-76
2021/06/06 00:39:43;;;;;;;44.28;27.20;;;15.80;84.90;;;;;;4998945;28;20417;-76
2021/06/06 00:42:09;;;;;;;49.73;27.00;;;15.80;86.20;;;;;;5014196;28;20389;-77
2021/06/06 00:44:35;;;;;;;42.28;25.25;;;15.90;86.10;;;;;;5017587;28;20826;-77
2021/06/06 00:47:00;;;;;;;43.55;26.88;;;15.80;85.20;;;;;;5011258;28;20698;-76
2021/06/06 00:49:26;;;;;;;41.97;27.45;;;15.80;86.00;;;;;;5008105;28;20512;-76
2021/06/06 00:51:55;;;;;;;50.13;28.57;;;15.90;86.50;;;;;;5013041;28;20785;-76
2021/06/06 00:54:31;;;;;;;43.97;28.00;;;15.90;84.90;;;;;;5011815;28;20793;-76
2021/06/06 00:57:09;;;;;;;45.97;27.30;;;15.90;85.40;;;;;;5011899;28;20427;-76
2021/06/06 00:59:38;;;;;;;47.13;29.55;;;15.80;85.20;;;;;;5010475;28;20804;-76
2021/06/06 01:02:07;;;;;;;43.33;26.98;;;15.80;86.00;;;;;;5013886;28;20697;-76
2021/06/06 01:04:33;;;;;;;45.17;28.02;;;15.90;85.80;;;;;;5008846;28;20390;-76
2021/06/06 01:07:00;;;;;;;41.42;25.85;;;15.90;85.90;;;;;;4997419;28;20406;-76
2021/06/06 01:09:27;;;;;;;41.80;24.33;;;15.90;85.40;;;;;;5014900;28;20424;-74
2021/06/06 01:12:17;;;;;;;38.03;24.77;;;15.80;85.60;;;;;;5015269;28;20392;-74
2021/06/06 01:14:55;;;;;;;40.00;24.85;;;15.80;86.00;;;;;;5014982;28;20384;-75
2021/06/06 01:17:37;;;;;;;35.25;23.23;;;15.80;86.70;;;;;;5003685;28;20408;-73
2021/06/06 01:20:15;;;;;;;43.67;26.38;;;15.70;87.90;;;;;;5001750;28;20834;-74
2021/06/06 01:23:02;;;;;;;40.42;24.42;;;15.70;88.00;;;;;;5004915;28;20411;-75
2021/06/06 01:25:38;;;;;;;39.53;23.23;;;15.80;88.10;;;;;;5012619;28;20404;-76
2021/06/06 01:28:13;;;;;;;39.20;23.15;;;15.70;87.90;;;;;;5014647;28;20789;-74
2021/06/06 01:30:45;;;;;;;35.92;23.75;;;15.70;87.60;;;;;;5014424;28;20401;-75
2021/06/06 01:33:24;;;;;;;37.63;23.67;;;15.70;89.30;;;;;;5014930;28;20904;-76
2021/06/06 01:36:16;;;;;;;34.25;23.50;;;15.80;88.10;;;;;;5010665;28;20916;-75
2021/06/06 01:38:45;;;;;;;43.60;24.35;;;15.80;88.00;;;;;;4974585;28;20422;-75
2021/06/06 01:41:17;;;;;;;41.35;23.40;;;15.80;87.40;;;;;;5007308;28;20487;-75
2021/06/06 01:43:48;;;;;;;34.97;22.25;;;15.70;87.40;;;;;;5013409;28;20417;-76
2021/06/06 01:46:21;;;;;;;33.35;22.60;;;15.70;88.10;;;;;;4994929;28;20413;-75
2021/06/06 01:48:46;;;;;;;39.35;24.55;;;15.70;88.10;;;;;;4979352;28;20406;-76
2021/06/06 01:51:21;;;;;;;41.03;23.63;;;15.70;88.20;;;;;;5010627;28;20407;-76
2021/06/06 01:53:48;;;;;;;38.75;23.52;;;15.60;88.20;;;;;;5014126;28;20750;-76
2021/06/06 01:56:19;;;;;;;43.57;25.10;;;15.60;88.00;;;;;;5014579;28;20796;-77
2021/06/06 01:58:46;;;;;;;40.33;23.30;;;15.60;88.80;;;;;;4996951;28;20448;-76
2021/06/06 02:01:19;;;;;;;40.50;24.30;;;15.70;88.60;;;;;;5005480;28;20390;-75
2021/06/06 02:03:49;;;;;;;45.22;25.83;;;15.60;88.20;;;;;;5012770;28;20461;-75
2021/06/06 02:06:18;;;;;;;38.65;24.90;;;15.60;88.80;;;;;;5015093;28;20428;-73
2021/06/06 02:08:46;;;;;;;43.30;24.73;;;15.60;89.70;;;;;;5013277;28;20501;-75
2021/06/06 02:11:15;;;;;;;44.90;26.30;;;15.60;89.10;;;;;;5007377;28;20400;-76
2021/06/06 02:13:46;;;;;;;42.78;26.10;;;15.60;89.80;;;;;;5005843;28;20452;-75
2021/06/06 02:16:19;;;;;;;44.55;27.00;;;15.60;89.50;;;;;;5007511;28;20894;-74
2021/06/06 02:18:45;;;;;;;46.60;26.98;;;15.50;91.10;;;;;;5003378;28;20398;-76
2021/06/06 02:21:11;;;;;;;47.77;28.23;;;15.50;92.40;;;;;;4995980;28;20434;-75
2021/06/06 02:23:40;;;;;;;48.85;29.50;;;15.40;93.50;;;;;;4999609;28;20483;-76
2021/06/06 02:26:26;;;;;;;54.17;29.98;;;15.40;94.90;;;;;;5015376;28;20385;-76
2021/06/06 02:28:58;;;;;;;48.13;27.45;;;15.50;95.20;;;;;;5010029;28;20440;-76
2021/06/06 02:31:40;;;;;;;51.30;27.90;;;15.40;93.90;;;;;;5010017;28;20836;-75
2021/06/06 02:34:15;;;;;;;44.58;23.65;;;15.40;94.00;;;;;;5012950;28;20697;-76
2021/06/06 02:36:59;;;;;;;53.20;28.13;;;15.30;94.00;;;;;;5009592;28;20377;-76
2021/06/06 02:39:37;;;;;;;52.15;28.83;;;15.30;94.60;;;;;;5012945;28;20392;-75
2021/06/06 02:42:09;;;;;;;49.05;29.52;;;15.30;94.50;;;;;;5013135;28;20389;-76
2021/06/06 02:44:46;;;;;;;51.30;30.27;;;15.30;94.50;;;;;;4995196;28;20403;-76
2021/06/06 02:47:13;;;;;;;47.78;28.20;;;15.30;94.60;;;;;;5012810;28;20381;-75
2021/06/06 02:49:42;;;;;;;47.03;29.63;;;15.30;94.20;;;;;;5014252;28;20413;-76
2021/06/06 02:52:16;;;;;;;48.80;27.60;;;15.40;94.00;;;;;;5012988;28;20380;-77
2021/06/06 02:54:46;;;;;;;47.72;27.60;;;15.40;92.80;;;;;;5004405;28;20426;-76
2021/06/06 02:57:15;;;;;;;44.80;27.13;;;15.40;92.90;;;;;;5014171;28;20481;-76
2021/06/06 02:59:59;;;;;;;43.58;27.70;;;15.40;92.40;;;;;;5015919;28;20468;-75
2021/06/06 03:02:34;;;;;;;49.08;27.77;;;15.40;92.40;;;;;;5014611;28;20913;-75
2021/06/06 03:05:01;;;;;;;46.93;28.60;;;15.50;92.20;;;;;;4996005;28;20896;-76
2021/06/06 03:07:36;;;;;;;44.35;27.27;;;15.50;91.70;;;;;;5012944;28;20409;-75
2021/06/06 03:10:04;;;;;;;45.50;26.65;;;15.50;90.70;;;;;;5009066;28;20840;-75
2021/06/06 03:12:30;;;;;;;42.92;28.92;;;15.50;91.20;;;;;;5011263;28;20462;-75
2021/06/06 03:14:59;;;;;;;53.28;30.20;;;15.50;92.20;;;;;;5011882;28;20902;-75
2021/06/06 03:17:35;;;;;;;51.17;29.00;;;15.40;93.20;;;;;;5011810;28;20408;-75
2021/06/06 03:20:17;;;;;;;55.17;31.95;;;15.40;93.60;;;;;;5011935;28;20424;-76
2021/06/06 03:22:45;;;;;;;48.55;29.67;;;15.30;94.00;;;;;;5011364;28;20403;-76
2021/06/06 03:25:18;;;;;;;55.00;31.13;;;15.30;94.60;;;;;;4997657;28;20429;-75
2021/06/06 03:27:45;;;;;;;57.38;35.17;;;15.30;95.10;;;;;;5011435;28;20400;-75
2021/06/06 03:30:32;;;;;;;53.17;32.00;;;15.30;95.40;;;;;;5012061;28;20440;-75
2021/06/06 03:33:00;;;;;;;53.92;32.53;;;15.30;95.10;;;;;;4992049;28;20481;-75
2021/06/06 03:35:26;;;;;;;56.67;32.50;;;15.40;93.90;;;;;;5002438;28;20754;-75
2021/06/06 03:37:51;;;;;;;51.53;31.98;;;15.30;93.30;;;;;;5011086;28;20392;-75
2021/06/06 03:40:18;;;;;;;55.33;33.20;;;15.30;94.00;;;;;;5011100;28;20411;-75
2021/06/06 03:42:44;;;;;;;61.55;35.80;;;15.30;94.00;;;;;;5003381;28;20836;-75
2021/06/06 03:45:11;;;;;;;59.83;33.25;;;15.20;94.70;;;;;;4997465;28;20411;-76
2021/06/06 03:47:37;;;;;;;58.95;35.00;;;15.20;94.50;;;;;;5012158;28;20535;-73
2021/06/06 03:50:06;;;;;;;55.50;33.50;;;15.30;94.90;;;;;;5012639;28;20472;-74
2021/06/06 03:52:33;;;;;;;52.38;31.60;;;15.50;94.30;;;;;;5014317;28;20384;-77
2021/06/06 03:55:00;;;;;;;57.67;32.97;;;15.50;93.50;;;;;;5013461;28;20730;-78
2021/06/06 03:57:26;;;;;;;50.80;31.48;;;15.50;92.40;;;;;;4996214;28;20381;-78
2021/06/06 03:59:51;;;;;;;53.92;33.15;;;15.50;92.90;;;;;;5012943;28;20932;-78
2021/06/06 04:02:17;;;;;;;55.40;32.47;;;15.50;92.90;;;;;;5019605;28;20405;-78
2021/06/06 04:04:43;;;;;;;57.33;33.67;;;15.50;93.90;;;;;;5012594;28;20384;-79
2021/06/06 04:07:09;;;;;;;60.33;37.10;;;15.40;94.10;;;;;;5012399;28;20779;-77
2021/06/06 04:09:35;;;;;;;60.05;35.45;;;15.40;95.90;;;;;;4991966;28;20407;-77
2021/06/06 04:12:01;;;;;;;61.05;37.00;;;15.40;96.10;;;;;;5009085;28;20901;-77
2021/06/06 04:14:26;;;;;;;66.07;38.38;;;15.30;95.90;;;;;;5011861;28;20403;-77
2021/06/06 04:16:52;;;;;;;66.27;38.40;;;15.20;96.20;;;;;;4995691;28;20393;-78
2021/06/06 04:19:17;;;;;;;67.63;39.40;;;15.20;96.50;;;;;;5001393;28;20416;-78
2021/06/06 04:21:43;;;;;;;68.80;38.27;;;15.20;97.20;;;;;;5016589;28;20428;-78
2021/06/06 04:24:08;;;;;;;69.50;39.40;;;15.20;97.30;;;;;;5024253;28;20380;-77
2021/06/06 04:26:34;;;;;;;74.82;41.35;;;15.30;97.00;;;;;;5020317;28;20787;-78
2021/06/06 04:29:00;;;;;;;73.28;42.28;;;15.20;97.60;;;;;;5013021;28;20411;-78
2021/06/06 04:31:26;;;;;;;71.65;42.80;;;15.20;96.70;;;;;;5013082;28;20404;-78
2021/06/06 04:33:52;;;;;;;70.03;39.47;;;15.30;97.00;;;;;;5013494;28;20388;-78
2021/06/06 04:36:18;;;;;;;73.78;43.47;;;15.20;96.00;;;;;;5011093;28;20392;-77
2021/06/06 04:38:43;;;;;;;78.90;41.80;;;15.20;96.10;;;;;;4995289;28;20456;-78
2021/06/06 04:41:12;;;;;;;77.73;43.60;;;15.30;96.20;;;;;;5007797;28;20431;-78
2021/06/06 04:43:38;;;;;;;83.55;44.15;;;15.30;96.60;;;;;;4995858;28;20439;-78
2021/06/06 04:46:04;;;;;;;72.88;41.80;;;15.40;96.20;;;;;;5023664;28;20411;-78
2021/06/06 04:48:33;;;;;;;77.25;43.28;;;15.40;95.60;;;;;;4997684;28;20409;-77
2021/06/06 04:51:02;;;;;;;85.85;47.35;;;15.40;95.00;;;;;;5003319;28;20424;-79
2021/06/06 04:53:28;;;;;;;82.72;45.40;;;15.40;94.90;;;;;;5013588;28;20399;-78
2021/06/06 04:55:56;;;;;;;80.00;43.15;;;15.50;94.90;;;;;;4996336;28;20397;-79
2021/06/06 04:58:22;;;;;;;82.90;44.00;;;15.50;94.00;;;;;;4996781;28;20388;-78
2021/06/06 05:00:49;;;;;;;79.77;43.90;;;15.40;94.10;;;;;;5019510;28;20457;-78
2021/06/06 05:03:16;;;;;;;82.47;44.20;;;15.40;94.30;;;;;;5022588;28;21055;-78
2021/06/06 05:05:42;;;;;;;79.00;43.80;;;15.30;94.60;;;;;;5007278;28;20412;-78
2021/06/06 05:08:08;;;;;;;81.03;41.58;;;15.40;95.00;;;;;;5017124;28;20736;-78
2021/06/06 05:10:36;;;;;;;73.45;39.53;;;15.50;94.10;;;;;;5009883;28;20417;-78
2021/06/06 05:13:03;;;;;;;83.63;42.53;;;15.50;93.00;;;;;;5018400;28;20658;-78
2021/06/06 05:15:29;;;;;;;76.13;40.65;;;15.40;93.80;;;;;;5024484;28;20392;-79
2021/06/06 05:17:55;;;;;;;72.35;39.58;;;15.40;94.20;;;;;;5006466;28;20445;-78
2021/06/06 05:20:27;;;;;;;76.70;41.53;;;15.30;93.60;;;;;;4997245;28;20390;-78
2021/06/06 05:22:53;;;;;;;81.22;43.22;;;15.20;94.80;;;;;;4994523;28;20431;-77
2021/06/06 05:25:19;;;;;;;79.18;41.25;;;15.20;95.60;;;;;;5013066;28;20397;-78
2021/06/06 05:27:45;;;;;;;87.10;41.08;;;15.20;95.00;;;;;;4994351;28;20389;-77
2021/06/06 05:30:15;;;;;;;89.80;43.57;;;15.20;94.80;;;;;;5011321;28;20405;-77
2021/06/06 05:32:41;;;;;;;82.50;40.22;;;15.30;94.70;;;;;;5013290;28;20392;-77
2021/06/06 05:35:08;;;;;;;96.60;46.30;;;15.20;94.40;;;;;;5011144;28;20384;-77
2021/06/06 05:37:34;;;;;;;85.22;45.47;;;15.30;95.30;;;;;;5010683;28;20400;-77
2021/06/06 05:39:59;;;;;;;82.30;41.25;;;15.30;94.20;;;;;;5009913;28;20750;-77
2021/06/06 05:42:25;;;;;;;95.73;45.20;;;15.40;93.60;;;;;;5016738;28;20459;-76
2021/06/06 05:44:50;;;;;;;103.20;49.90;;;15.30;93.70;;;;;;5009654;28;20550;-76
2021/06/06 05:47:16;;;;;;;100.20;46.95;;;15.40;93.90;;;;;;5011271;28;20395;-79
2021/06/06 05:49:42;;;;;;;89.22;44.13;;;15.40;93.10;;;;;;5000145;28;20416;-78
2021/06/06 05:52:08;;;;;;;89.00;45.33;;;15.50;91.70;;;;;;5016857;28;20403;-78
2021/06/06 05:54:33;;;;;;;95.50;47.17;;;15.50;92.10;;;;;;5014894;28;20408;-76
2021/06/06 05:56:59;;;;;;;94.10;46.08;;;15.60;90.90;;;;;;4996581;28;20393;-76
2021/06/06 05:59:25;;;;;;;94.18;46.28;;;15.70;90.00;;;;;;5001181;28;20414;-76
2021/06/06 06:01:51;;;;;;;82.97;46.90;;;15.80;88.90;;;;;;5013316;28;20499;-77
2021/06/06 06:04:16;;;;;;;84.00;42.90;;;15.80;88.30;;;;;;5008922;28;20847;-78
2021/06/06 06:06:42;;;;;;;86.90;44.50;;;15.80;87.70;;;;;;5011538;28;20400;-77
2021/06/06 06:09:07;;;;;;;85.15;43.72;;;15.90;87.20;;;;;;5002829;28;20402;-77
2021/06/06 06:11:33;;;;;;;79.95;42.70;;;16.00;86.90;;;;;;5010031;28;20882;-76
2021/06/06 06:14:00;;;;;;;88.05;43.70;;;16.00;85.70;;;;;;5010920;28;20427;-76
2021/06/06 06:16:30;;;;;;;82.03;43.22;;;16.20;84.50;;;;;;5014584;28;20393;-78
2021/06/06 06:18:57;;;;;;;74.37;40.90;;;16.20;82.20;;;;;;5015697;28;20401;-77
2021/06/06 06:21:24;;;;;;;78.28;40.88;;;16.20;82.00;;;;;;5014248;28;20397;-78
2021/06/06 06:23:49;;;;;;;78.05;41.20;;;16.20;83.10;;;;;;5013570;28;20447;-77
2021/06/06 06:26:15;;;;;;;80.43;43.30;;;16.10;83.00;;;;;;5013334;28;20412;-77
2021/06/06 06:28:46;;;;;;;78.88;43.00;;;16.10;83.60;;;;;;5012718;28;20992;-78
2021/06/06 06:31:13;;;;;;;78.57;41.55;;;16.10;83.00;;;;;;5018863;28;20396;-77
2021/06/06 06:33:39;;;;;;;78.78;40.53;;;16.10;83.40;;;;;;5019145;28;20746;-78
2021/06/06 06:36:05;;;;;;;86.10;43.42;;;16.20;83.00;;;;;;5020434;28;20397;-77
2021/06/06 06:38:33;;;;;;;83.03;43.53;;;16.20;82.90;;;;;;4982916;28;20456;-79
2021/06/06 06:40:59;;;;;;;82.82;41.88;;;16.20;81.70;;;;;;5020385;28;20393;-78
2021/06/06 06:43:24;;;;;;;76.13;41.20;;;16.30;80.80;;;;;;5019119;28;20420;-78
2021/06/06 06:45:50;;;;;;;70.37;39.93;;;16.40;80.80;;;;;;5018340;28;20436;-77
2021/06/06 06:48:21;;;;;;;69.05;39.97;;;16.40;79.80;;;;;;5019968;28;20453;-77
2021/06/06 06:50:49;;;;;;;69.03;38.53;;;16.50;80.00;;;;;;5019012;28;20397;-78
2021/06/06 06:53:16;;;;;;;75.95;38.85;;;16.50;78.70;;;;;;5019909;28;20384;-78
2021/06/06 06:55:41;;;;;;;69.82;39.78;;;16.40;79.10;;;;;;5019776;28;20395;-78
2021/06/06 06:58:08;;;;;;;71.00;38.50;;;16.40;80.10;;;;;;5007071;28;20424;-78
2021/06/06 07:00:38;;;;;;;74.25;40.03;;;16.30;79.80;;;;;;5005509;28;20392;-78
2021/06/06 07:03:04;;;;;;;79.47;41.75;;;16.30;80.80;;;;;;5023982;28;20385;-78
2021/06/06 07:05:30;;;;;;;69.65;37.00;;;16.20;81.20;;;;;;5008569;28;20397;-77
2021/06/06 07:07:57;;;;;;;74.22;39.13;;;16.10;82.60;;;;;;5005905;28;20394;-77
2021/06/06 07:10:25;;;;;;;73.85;40.15;;;16.10;83.80;;;;;;5019357;28;20426;-77
2021/06/06 07:12:51;;;;;;;77.20;39.10;;;16.20;83.20;;;;;;5011115;28;20401;-77
2021/06/06 07:15:18;;;;;;;76.53;38.90;;;16.10;82.40;;;;;;4998254;28;20713;-77
2021/06/06 07:17:48;;;;;;;75.82;37.22;;;16.20;82.60;;;;;;5003853;28;20612;-76
2021/06/06 07:20:22;;;;;;;75.70;38.03;;;16.20;82.40;;;;;;4999673;28;20400;-77
2021/06/06 07:22:49;;;;;;;78.60;40.60;;;16.80;83.10;;;;;;4999868;28;20441;-76
2021/06/06 07:25:26;;;;;;;86.65;41.50;;;16.00;83.70;;;;;;5012155;28;20913;-77
2021/06/06 07:28:05;;;;;;;87.22;42.25;;;16.00;83.90;;;;;;5002010;28;20400;-78
2021/06/06 07:30:46;;;;;;;90.78;43.95;;;15.50;86.30;;;;;;4998976;28;20420;-79
2021/06/06 07:33:12;;;;;;;86.07;42.70;;;17.80;84.40;;;;;;5005164;28;20405;-78
2021/06/06 07:35:41;;;;;;;75.80;39.83;;;16.20;82.20;;;;;;4997471;28;20497;-78
2021/06/06 07:38:13;;;;;;;96.15;42.50;;;16.10;82.80;;;;;;4995259;28;20386;-78
2021/06/06 07:40:42;;;;;;;85.13;42.70;;;16.20;84.20;;;;;;4996989;28;20409;-78
2021/06/06 07:43:08;;;;;;;92.35;43.08;;;16.10;87.20;;;;;;4990863;28;20779;-78
2021/06/06 07:45:34;;;;;;;91.25;44.10;;;16.00;88.70;;;;;;4994497;28;20448;-78
2021/06/06 07:48:06;;;;;;;105.75;46.33;;;16.30;87.10;;;;;;5006621;28;20945;-78
2021/06/06 07:50:34;;;;;;;97.72;47.75;;;16.00;88.00;;;;;;5002280;28;20427;-78
2021/06/06 07:53:00;;;;;;;109.93;47.65;;;16.00;89.50;;;;;;4994739;28;20394;-77
2021/06/06 07:55:27;;;;;;;101.75;47.55;;;16.00;87.10;;;;;;5015502;28;20459;-78
2021/06/06 07:57:53;;;;;;;101.10;46.75;;;16.90;86.60;;;;;;4986735;28;20397;-77
2021/06/06 08:00:25;;;;;;;108.20;44.70;;;16.20;83.80;;;;;;4994593;28;21164;-78
2021/06/06 08:02:51;;;;;;;88.65;44.58;;;16.20;83.80;;;;;;5004010;28;20407;-77
2021/06/06 08:05:19;;;;;;;99.65;44.47;;;16.10;83.50;;;;;;5002338;28;20806;-75
2021/06/06 08:07:45;;;;;;;96.72;46.97;;;16.20;83.20;;;;;;4998686;28;20397;-75
2021/06/06 08:10:15;;;;;;;92.15;47.47;;;16.10;83.30;;;;;;5009113;28;20928;-76
2021/06/06 08:12:40;;;;;;;90.15;45.58;;;16.30;83.00;;;;;;5000374;28;20480;-74
2021/06/06 08:15:09;;;;;;;82.87;41.27;;;16.50;83.20;;;;;;5004964;28;20522;-76
2021/06/06 08:17:35;;;;;;;80.40;40.47;;;16.70;78.40;;;;;;5007097;28;20395;-78
2021/06/06 08:20:02;;;;;;;81.40;42.22;;;16.80;76.70;;;;;;5020311;28;20928;-78
2021/06/06 08:22:28;;;;;;;82.18;42.58;;;16.80;75.70;;;;;;5016069;28;20397;-78
2021/06/06 08:24:54;;;;;;;79.28;38.80;;;16.90;76.70;;;;;;5014976;28;20412;-78
2021/06/06 08:27:19;;;;;;;77.28;40.83;;;17.00;73.20;;;;;;5014426;28;20423;-77
2021/06/06 08:29:45;;;;;;;71.77;38.13;;;16.80;74.70;;;;;;5014183;28;20497;-78
2021/06/06 08:32:12;;;;;;;75.28;40.05;;;16.90;73.90;;;;;;5003173;28;21026;-79
2021/06/06 08:34:37;;;;;;;76.03;40.83;;;17.00;73.90;;;;;;5009258;28;20420;-78
2021/06/06 08:37:04;;;;;;;69.93;38.33;;;16.90;73.10;;;;;;5007835;28;20433;-79
2021/06/06 08:39:33;;;;;;;78.35;36.92;;;16.80;75.40;;;;;;5008413;28;20397;-78
2021/06/06 08:42:00;;;;;;;86.70;41.80;;;16.60;76.00;;;;;;4979589;28;20511;-78
2021/06/06 08:44:36;;;;;;;82.55;40.85;;;16.60;78.50;;;;;;5005988;28;20483;-77
2021/06/06 08:47:14;;;;;;;79.00;41.30;;;16.70;76.20;;;;;;5005922;28;20428;-77
2021/06/06 08:49:46;;;;;;;83.65;42.55;;;16.60;76.00;;;;;;4992470;28;20785;-76
2021/06/06 08:52:35;;;;;;;87.85;43.63;;;16.60;77.40;;;;;;5006038;28;20435;-78
2021/06/06 08:55:10;;;;;;;85.80;43.97;;;16.60;78.70;;;;;;4986980;28;20485;-79
2021/06/06 08:57:35;;;;;;;93.07;45.45;;;16.70;77.60;;;;;;4989777;28;20420;-78
2021/06/06 09:00:17;;;;;;;80.20;42.80;;;16.70;77.80;;;;;;5001065;28;20432;-79
2021/06/06 09:02:58;;;;;;;85.18;42.65;;;16.90;74.10;;;;;;4994120;28;20475;-76
2021/06/06 09:05:37;;;;;;;80.57;43.63;;;17.10;74.10;;;;;;5002748;28;20406;-77
2021/06/06 09:08:06;;;;;;;85.35;44.22;;;17.20;74.30;;;;;;5010458;28;20902;-76
2021/06/06 09:10:37;;;;;;;84.97;42.17;;;17.30;72.00;;;;;;5008122;28;20426;-76
2021/06/06 09:13:06;;;;;;;78.95;41.25;;;17.40;70.00;;;;;;5001854;28;20397;-76
2021/06/06 09:15:31;;;;;;;72.38;40.70;;;17.50;68.80;;;;;;5010412;28;20403;-77
2021/06/06 09:18:00;;;;;;;77.70;42.47;;;17.50;68.10;;;;;;4998265;28;20462;-79
2021/06/06 09:20:41;;;;;;;73.15;40.67;;;17.50;68.10;;;;;;5004079;28;20442;-77
2021/06/06 09:23:11;;;;;;;73.47;40.80;;;17.50;68.80;;;;;;5023526;28;20398;-77
2021/06/06 09:25:40;;;;;;;82.95;41.80;;;17.50;68.90;;;;;;4984319;28;20752;-77
2021/06/06 09:28:21;;;;;;;74.22;40.83;;;17.60;67.60;;;;;;4994487;28;20396;-78
2021/06/06 09:31:01;;;;;;;80.27;42.80;;;17.60;67.80;;;;;;5002073;28;20817;-77
2021/06/06 09:33:33;;;;;;;74.80;40.42;;;17.60;67.00;;;;;;5011386;28;20600;-77
2021/06/06 09:36:03;;;;;;;73.40;38.60;;;17.70;65.20;;;;;;4996723;28;20386;-77
2021/06/06 09:38:34;;;;;;;75.93;41.25;;;17.50;67.00;;;;;;5010593;28;20395;-76
2021/06/06 09:41:33;;;;;;;83.07;40.25;;;17.40;68.10;;;;;;5004136;28;20410;-78
2021/06/06 09:44:06;;;;;;;76.53;38.55;;;17.20;69.60;;;;;;4999133;28;20839;-76
2021/06/06 09:46:40;;;;;;;84.38;41.17;;;16.80;73.70;;;;;;4985756;28;20403;-76
2021/06/06 09:49:28;;;;;;;89.40;45.13;;;16.80;76.20;;;;;;4998538;28;20435;-77
2021/06/06 09:52:13;;;;;;;80.10;42.03;;;16.90;75.10;;;;;;4997698;28;20476;-77
2021/06/06 09:54:41;;;;;;;80.70;41.53;;;17.10;72.20;;;;;;5011759;28;20427;-76
2021/06/06 09:57:20;;;;;;;84.72;42.88;;;17.10;72.70;;;;;;5014164;28;20393;-77
2021/06/06 09:59:46;;;;;;;81.65;42.92;;;17.00;72.00;;;;;;5011977;28;20407;-78
2021/06/06 10:02:12;;;;;;;88.80;44.05;;;17.10;73.10;;;;;;5008344;28;20407;-77
2021/06/06 10:04:41;;;;;;;95.97;46.60;;;17.30;70.50;;;;;;5017587;28;20405;-77
2021/06/06 10:07:28;;;;;;;96.65;50.17;;;17.30;70.30;;;;;;4999533;28;20407;-77
2021/06/06 10:09:56;;;;;;;99.78;50.65;;;17.20;71.10;;;;;;4998407;28;20930;-76
2021/06/06 10:12:34;;;;;;;96.53;51.90;;;17.40;70.10;;;;;;5008076;28;20407;-77
2021/06/06 10:15:07;;;;;;;107.88;52.75;;;17.40;70.00;;;;;;5000612;28;20462;-77
2021/06/06 10:17:48;;;;;;;114.68;52.17;;;17.40;70.90;;;;;;4980478;28;20403;-76
2021/06/06 10:20:16;;;;;;;102.07;48.92;;;17.60;70.00;;;;;;5007644;28;20408;-76
2021/06/06 10:22:49;;;;;;;103.20;49.60;;;17.50;68.00;;;;;;4992330;28;20399;-76
2021/06/06 10:25:26;;;;;;;98.75;46.95;;;17.60;67.90;;;;;;5005958;28;20417;-76
2021/06/06 10:27:57;;;;;;;98.45;45.70;;;17.60;67.40;;;;;;5008753;28;20401;-74
2021/06/06 10:30:32;;;;;;;96.35;46.92;;;17.70;67.80;;;;;;5015085;28;20420;-75
2021/06/06 10:33:22;;;;;;;94.20;45.25;;;17.70;67.50;;;;;;5018741;28;20971;-75
2021/06/06 10:35:49;;;;;;;87.80;44.40;;;17.80;65.30;;;;;;5006436;28;20732;-76
2021/06/06 10:38:17;;;;;;;100.40;44.97;;;17.60;66.80;;;;;;5003833;28;20407;-76
2021/06/06 10:40:48;;;;;;;87.47;43.22;;;17.50;67.70;;;;;;4993517;28;20915;-76
2021/06/06 10:43:46;;;;;;;85.60;43.85;;;17.40;70.20;;;;;;5006655;28;20439;-76
2021/06/06 10:46:30;;;;;;;88.88;42.63;;;17.30;70.10;;;;;;5008772;28;20524;-76
2021/06/06 10:49:08;;;;;;;92.93;43.25;;;17.30;70.00;;;;;;5005716;28;20467;-76
2021/06/06 10:51:40;;;;;;;89.32;43.97;;;17.40;70.10;;;;;;5002233;28;20399;-77
2021/06/06 10:54:35;;;;;;;78.53;38.45;;;17.30;69.70;;;;;;5004080;28;20403;-74
2021/06/06 10:57:26;;;;;;;81.35;40.60;;;17.20;70.10;;;;;;4996337;28;20453;-75
2021/06/06 11:00:19;;;;;;;68.20;36.58;;;17.40;70.80;;;;;;4990430;28;20420;-74
2021/06/06 11:03:22;;;;;;;71.35;37.08;;;17.50;68.70;;;;;;5002320;28;20433;-76
2021/06/06 11:05:57;;;;;;;73.15;36.20;;;17.70;66.50;;;;;;4981317;28;20418;-75
2021/06/06 11:08:33;;;;;;;71.47;38.83;;;17.70;65.70;;;;;;5008614;28;20404;-75
2021/06/06 11:11:16;;;;;;;70.32;39.13;;;17.70;65.80;;;;;;5007983;28;20401;-76
2021/06/06 11:13:51;;;;;;;62.05;34.47;;;18.00;66.30;;;;;;5003051;28;20416;-76
2021/06/06 11:16:22;;;;;;;59.42;34.03;;;18.10;62.00;;;;;;5012857;28;20583;-75
2021/06/06 11:18:58;;;;;;;62.00;34.30;;;18.10;61.50;;;;;;4992482;28;20755;-76
2021/06/06 11:21:29;;;;;;;61.72;32.08;;;18.10;61.30;;;;;;4979674;28;20440;-76
2021/06/06 11:23:58;;;;;;;65.05;33.20;;;18.10;63.00;;;;;;5000256;28;20400;-75
2021/06/06 11:26:33;;;;;;;54.42;31.85;;;18.00;64.00;;;;;;5001009;28;20462;-75
2021/06/06 11:29:13;;;;;;;58.57;33.37;;;17.90;63.40;;;;;;5010475;28;20550;-75
2021/06/06 11:31:57;;;;;;;53.83;32.90;;;17.90;64.20;;;;;;5010232;28;20396;-75
2021/06/06 11:34:33;;;;;;;58.55;33.05;;;17.90;64.10;;;;;;4992442;28;20394;-76
2021/06/06 11:37:21;;;;;;;55.70;30.95;;;18.00;63.30;;;;;;4997107;28;20393;-75
2021/06/06 11:39:48;;;;;;;56.13;30.92;;;18.00;62.90;;;;;;4996468;28;20413;-74
2021/06/06 11:42:39;;;;;;;58.40;29.47;;;17.70;64.70;;;;;;5011316;28;20509;-75
2021/06/06 11:45:29;;;;;;;60.28;31.35;;;17.60;66.70;;;;;;5005869;28;20421;-75
2021/06/06 11:47:59;;;;;;;60.13;31.02;;;17.60;68.20;;;;;;5009182;28;20480;-74
2021/06/06 11:50:35;;;;;;;61.25;31.85;;;17.40;68.70;;;;;;5007494;28;20419;-76
2021/06/06 11:53:09;;;;;;;65.05;35.08;;;17.50;69.30;;;;;;5005195;28;20436;-76
2021/06/06 11:55:42;;;;;;;68.47;38.60;;;17.60;68.60;;;;;;4994381;28;20397;-75
2021/06/06 11:58:15;;;;;;;61.28;33.10;;;17.70;68.60;;;;;;5010355;28;20459;-75
2021/06/06 12:00:44;;;;;;;62.70;34.35;;;17.60;66.50;;;;;;4975348;28;20421;-76
2021/06/06 12:03:28;;;;;;;61.47;33.63;;;17.60;68.10;;;;;;5009024;28;20404;-75
2021/06/06 12:06:02;;;;;;;59.00;33.20;;;17.70;67.30;;;;;;4991590;28;20425;-74
2021/06/06 12:08:30;;;;;;;64.75;33.33;;;17.80;67.50;;;;;;5003418;28;20788;-75
2021/06/06 12:10:58;;;;;;;72.95;40.08;;;17.90;67.60;;;;;;4979648;28;20410;-76
2021/06/06 12:13:30;;;;;;;62.45;36.25;;;17.90;65.50;;;;;;5007969;28;21116;-77
2021/06/06 12:16:12;;;;;;;62.92;34.40;;;18.00;65.30;;;;;;4996915;28;20414;-76
2021/06/06 12:18:40;;;;;;;63.22;34.40;;;18.10;65.20;;;;;;5012364;28;20760;-75
2021/06/06 12:21:16;;;;;;;69.80;37.90;;;18.00;64.40;;;;;;4999324;28;20401;-77
2021/06/06 12:23:44;;;;;;;68.05;38.67;;;18.00;63.60;;;;;;5005680;28;20425;-77
2021/06/06 12:26:26;;;;;;;68.10;36.70;;;18.00;64.90;;;;;;4997196;28;20382;-75
2021/06/06 12:28:54;;;;;;;59.93;34.73;;;18.00;64.40;;;;;;4999289;28;20410;-77
2021/06/06 12:31:28;;;;;;;63.67;35.80;;;18.00;64.70;;;;;;4982867;28;20394;-76
2021/06/06 12:33:55;;;;;;;62.15;34.20;;;18.20;64.70;;;;;;4993217;28;20405;-77
2021/06/06 12:36:35;;;;;;;64.15;36.00;;;18.40;62.50;;;;;;4978032;28;20410;-78
2021/06/06 12:39:05;;;;;;;62.40;35.43;;;18.40;61.10;;;;;;4993835;28;20407;-76
2021/06/06 12:41:34;;;;;;;62.28;35.25;;;18.30;62.30;;;;;;4995115;28;20462;-76
2021/06/06 12:44:00;;;;;;;58.72;34.47;;;18.20;64.40;;;;;;5015160;28;20413;-76